createdAt,value
2019-04-01T00:01:53.572Z,1.30
2019-04-01T00:04:24.004Z,1.97
2019-04-01T00:06:59.261Z,0.90
2019-04-01T00:09:36.528Z,1.57
2019-04-01T00:12:06.047Z,1.87
2019-04-01T00:14:36.425Z,1.60
2019-04-01T00:17:08.747Z,1.50
2019-04-01T00:19:43.751Z,1.50
2019-04-01T00:22:13.089Z,1.50
2019-04-01T00:24:43.432Z,1.27
2019-04-01T00:27:13.774Z,1.60
2019-04-01T00:29:43.271Z,1.50
2019-04-01T00:32:26.329Z,1.70
2019-04-01T00:34:56.592Z,1.57
2019-04-01T00:37:28.272Z,1.20
2019-04-01T00:39:58.973Z,1.63
2019-04-01T00:42:39.424Z,1.67
2019-04-01T00:45:13.455Z,1.07
2019-04-01T00:47:48.776Z,1.40
2019-04-01T00:50:18.201Z,1.30
2019-04-01T00:52:48.634Z,1.67
2019-04-01T00:55:18.088Z,1.47
2019-04-01T00:57:48.406Z,1.30
2019-04-01T01:00:21.218Z,1.50
2019-04-01T01:02:56.478Z,1.37
2019-04-01T01:05:30.168Z,1.43
2019-04-01T01:07:59.508Z,1.10
2019-04-01T01:10:33.216Z,1.60
2019-04-01T01:13:02.854Z,1.33
2019-04-01T01:15:32.600Z,1.00
2019-04-01T01:18:04.213Z,1.40
2019-04-01T01:20:35.852Z,1.37
2019-04-01T01:23:07.198Z,1.33
2019-04-01T01:25:38.851Z,1.33
2019-04-01T01:28:16.102Z,1.70
2019-04-01T01:30:51.302Z,1.23
2019-04-01T01:33:26.745Z,1.00
2019-04-01T01:36:03.905Z,1.40
2019-04-01T01:38:35.567Z,1.30
2019-04-01T01:41:06.568Z,1.00
2019-04-01T01:43:44.392Z,1.50
2019-04-01T01:46:13.720Z,1.27
2019-04-01T01:48:44.117Z,1.47
2019-04-01T01:51:18.961Z,1.37
2019-04-01T01:53:49.211Z,1.37
2019-04-01T01:56:26.601Z,1.10
2019-04-01T01:59:03.749Z,1.37
2019-04-01T02:01:42.372Z,1.17
2019-04-01T02:04:19.674Z,1.10
2019-04-01T02:07:00.179Z,1.70
2019-04-01T02:09:35.363Z,1.10
2019-04-01T02:12:05.751Z,1.00
2019-04-01T02:14:39.401Z,1.20
2019-04-01T02:17:15.793Z,1.57
2019-04-01T02:19:48.215Z,1.20
2019-04-01T02:22:17.651Z,1.00
2019-04-01T02:24:47.981Z,1.40
2019-04-01T02:27:17.615Z,1.40
2019-04-01T02:29:56.061Z,0.93
2019-04-01T02:32:28.405Z,1.63
2019-04-01T02:34:58.074Z,1.40
2019-04-01T02:37:35.699Z,1.10
2019-04-01T02:40:14.590Z,0.97
2019-04-01T02:42:44.096Z,1.37
2019-04-01T02:45:22.137Z,1.60
2019-04-01T02:47:51.484Z,1.30
2019-04-01T02:50:21.006Z,1.42
2019-04-01T02:52:52.277Z,1.13
2019-04-01T02:55:22.713Z,1.50
2019-04-01T02:58:02.656Z,1.20
2019-04-01T03:00:33.121Z,1.20
2019-04-01T03:03:04.027Z,1.47
2019-04-01T03:05:33.521Z,1.30
2019-04-01T03:08:03.035Z,1.30
2019-04-01T03:10:33.195Z,1.50
2019-04-01T03:13:05.054Z,1.10
2019-04-01T03:15:34.958Z,1.60
2019-04-01T03:18:18.607Z,1.10
2019-04-01T03:20:55.873Z,1.40
2019-04-01T03:23:27.363Z,1.60
2019-04-01T03:26:00.082Z,1.43
2019-04-01T03:28:53.749Z,1.47
2019-04-01T03:31:24.161Z,1.30
2019-04-01T03:33:53.669Z,1.27
2019-04-01T03:36:29.465Z,1.37
2019-04-01T03:39:06.964Z,1.20
2019-04-01T03:41:42.695Z,1.40
2019-04-01T03:44:23.293Z,1.60
2019-04-01T03:46:57.682Z,1.10
2019-04-01T03:49:26.874Z,1.10
2019-04-01T03:51:56.339Z,1.17
2019-04-01T03:54:25.776Z,1.50
2019-04-01T03:56:55.301Z,1.27
2019-04-01T03:59:26.929Z,1.30
2019-04-01T04:02:05.749Z,1.73
2019-04-01T04:04:36.180Z,1.50
2019-04-01T04:07:07.600Z,1.20
2019-04-01T04:09:41.241Z,1.60
2019-04-01T04:12:12.669Z,1.40
2019-04-01T04:14:41.849Z,1.10
2019-04-01T04:17:11.407Z,1.30
2019-04-01T04:19:40.900Z,1.27
2019-04-01T04:22:11.297Z,0.85
2019-04-01T04:24:58.811Z,1.40
2019-04-01T04:27:37.769Z,1.50
2019-04-01T04:30:18.681Z,1.60
2019-04-01T04:32:48.218Z,1.53
2019-04-01T04:35:31.478Z,1.20
2019-04-01T04:38:01.148Z,1.67
2019-04-01T04:40:31.855Z,1.47
2019-04-01T04:43:03.414Z,1.63
2019-04-01T04:45:32.911Z,1.30
2019-04-01T04:48:04.462Z,1.80
2019-04-01T04:50:34.005Z,1.93
2019-04-01T04:53:04.350Z,1.77
2019-04-01T04:55:34.965Z,1.60
2019-04-01T04:58:04.209Z,1.70
2019-04-01T05:00:35.735Z,1.60
2019-04-01T05:03:15.845Z,1.82
2019-04-01T05:05:56.441Z,1.87
2019-04-01T05:08:38.328Z,1.50
2019-04-01T05:11:26.824Z,1.80
2019-04-01T05:13:43.799Z,1.63
2019-04-01T05:16:21.688Z,1.63
2019-04-01T05:18:51.312Z,1.50
2019-04-01T05:21:23.756Z,1.80
2019-04-01T05:23:59.436Z,1.87
2019-04-01T05:26:35.905Z,1.83
2019-04-01T05:29:10.139Z,1.65
2019-04-01T05:31:44.128Z,1.40
2019-04-01T05:34:25.209Z,1.57
2019-04-01T05:36:54.850Z,2.20
2019-04-01T05:39:25.187Z,1.60
2019-04-01T05:41:59.648Z,1.32
2019-04-01T05:44:29.567Z,2.10
2019-04-01T05:46:59.231Z,1.50
2019-04-01T05:49:28.982Z,1.50
2019-04-01T05:52:14.174Z,1.83
2019-04-01T05:54:46.287Z,1.67
2019-04-01T05:57:20.948Z,1.80
2019-04-01T05:59:52.509Z,1.83
2019-04-01T06:02:28.013Z,1.60
2019-04-01T06:04:57.402Z,1.80
2019-04-01T06:07:33.243Z,1.73
2019-04-01T06:10:04.133Z,1.90
2019-04-01T06:12:44.499Z,2.00
2019-04-01T06:15:22.144Z,2.00
2019-04-01T06:17:56.730Z,1.67
2019-04-01T06:20:31.693Z,2.37
2019-04-01T06:23:01.364Z,1.63
2019-04-01T06:25:30.892Z,2.40
2019-04-01T06:28:01.655Z,1.53
2019-04-01T06:30:31.123Z,1.80
2019-04-01T06:33:00.653Z,1.80
2019-04-01T06:35:30.101Z,1.90
2019-04-01T06:38:01.654Z,2.93
2019-04-01T06:40:38.571Z,2.43
2019-04-01T06:43:08.224Z,1.50
2019-04-01T06:45:38.973Z,1.87
2019-04-01T06:48:09.475Z,2.20
2019-04-01T06:51:02.302Z,1.70
2019-04-01T06:53:38.103Z,2.07
2019-04-01T06:56:21.753Z,2.23
2019-04-01T06:58:52.489Z,2.03
2019-04-01T07:01:22.212Z,2.40
2019-04-01T07:03:53.079Z,2.20
2019-04-01T07:06:22.830Z,1.98
2019-04-01T07:09:01.314Z,2.20
2019-04-01T07:11:31.928Z,1.93
2019-04-01T07:14:05.688Z,2.07
2019-04-01T07:16:42.022Z,1.83
2019-04-01T07:19:18.104Z,2.20
2019-04-01T07:21:55.476Z,2.67
2019-04-01T07:24:24.848Z,2.10
2019-04-01T07:26:58.830Z,2.37
2019-04-01T07:29:33.202Z,2.60
2019-04-01T07:32:06.588Z,2.30
2019-04-01T07:34:35.920Z,2.50
2019-04-01T07:37:05.900Z,2.30
2019-04-01T07:39:35.477Z,2.07
2019-04-01T07:42:05.490Z,2.50
2019-04-01T07:44:34.826Z,2.10
2019-04-01T07:47:14.299Z,2.70
2019-04-01T07:49:47.636Z,2.40
2019-04-01T07:52:18.831Z,2.20
2019-04-01T07:54:48.271Z,2.20
2019-04-01T07:57:18.916Z,2.30
2019-04-01T07:59:57.013Z,2.50
2019-04-01T08:02:41.879Z,2.40
2019-04-01T08:05:29.734Z,2.67
2019-04-01T08:08:17.743Z,2.73
2019-04-01T08:10:54.411Z,2.40
2019-04-01T08:13:43.404Z,2.63
2019-04-01T08:16:13.131Z,2.93
2019-04-01T08:18:45.197Z,2.60
2019-04-01T08:21:15.442Z,2.63
2019-04-01T08:23:45.258Z,3.07
2019-04-01T08:26:16.011Z,2.90
2019-04-01T08:28:47.493Z,2.70
2019-04-01T08:31:18.071Z,2.90
2019-04-01T08:33:50.242Z,2.30
2019-04-01T08:36:19.065Z,2.50
2019-04-01T08:39:06.947Z,3.03
2019-04-01T08:42:00.349Z,3.30
2019-04-01T08:44:32.987Z,2.70
2019-04-01T08:47:19.377Z,3.10
2019-04-01T08:49:49.181Z,2.90
2019-04-01T08:52:24.696Z,2.97
2019-04-01T08:54:55.015Z,2.70
2019-04-01T08:57:30.606Z,3.10
2019-04-01T09:00:11.082Z,3.50
2019-04-01T09:02:40.812Z,3.43
2019-04-01T09:05:22.534Z,3.47
2019-04-01T09:07:54.767Z,3.30
2019-04-01T09:10:26.449Z,3.53
2019-04-01T09:13:07.087Z,3.30
2019-04-01T09:15:58.217Z,3.27
2019-04-01T09:18:38.210Z,3.90
2019-04-01T09:21:29.808Z,3.00
2019-04-01T09:24:07.056Z,3.90
2019-04-01T09:26:41.686Z,3.67
2019-04-01T09:29:26.152Z,3.60
2019-04-01T09:32:22.342Z,3.47
2019-04-01T09:34:59.356Z,3.40
2019-04-01T09:37:28.960Z,3.53
2019-04-01T09:40:09.683Z,3.53
2019-04-01T09:44:07.915Z,4.57
2019-04-01T09:46:35.364Z,3.90
2019-04-01T09:49:07.860Z,3.90
2019-04-01T09:51:52.680Z,3.77
2019-04-01T09:54:24.588Z,3.30
2019-04-01T09:56:55.100Z,4.50
2019-04-01T09:59:27.998Z,3.93
2019-04-01T10:02:12.990Z,4.53
2019-04-01T10:04:49.450Z,4.37
2019-04-01T10:08:01.995Z,3.83
2019-04-01T10:10:41.187Z,3.83
2019-04-01T10:13:20.394Z,4.00
2019-04-01T10:15:49.833Z,3.97
2019-04-01T10:18:19.311Z,4.27
2019-04-01T10:20:48.902Z,4.07
2019-04-01T10:23:34.410Z,4.20
2019-04-01T10:26:07.296Z,3.87
2019-04-01T10:28:37.613Z,5.00
2019-04-01T10:31:09.991Z,4.57
2019-04-01T10:33:58.354Z,5.20
2019-04-01T10:36:36.144Z,4.97
2019-04-01T10:39:09.510Z,4.40
2019-04-01T10:41:40.051Z,5.13
2019-04-01T10:44:10.289Z,5.93
2019-04-01T10:46:41.053Z,5.43
2019-04-01T10:49:11.598Z,5.40
2019-04-01T10:51:47.228Z,5.43
2019-04-01T10:54:16.665Z,5.50
2019-04-01T10:56:59.637Z,5.60
2019-04-01T10:59:29.635Z,5.20
2019-04-01T11:01:59.142Z,5.30
2019-04-01T11:04:39.082Z,4.73
2019-04-01T11:07:14.945Z,4.40
2019-04-01T11:09:45.622Z,4.90
2019-04-01T11:12:15.225Z,5.40
2019-04-01T11:14:55.711Z,4.13
2019-04-01T11:17:25.195Z,5.00
2019-04-01T11:19:54.723Z,4.37
2019-04-01T11:22:26.256Z,4.93
2019-04-01T11:24:55.837Z,5.23
2019-04-01T11:27:25.274Z,4.63
2019-04-01T11:30:16.591Z,4.80
2019-04-01T11:32:50.368Z,4.80
2019-04-01T11:35:19.875Z,4.40
2019-04-01T11:37:49.757Z,4.87
2019-04-01T11:40:28.322Z,5.03
2019-04-01T11:46:45.702Z,4.50
2019-04-01T11:49:15.194Z,4.43
2019-04-01T11:52:03.616Z,4.93
2019-04-01T11:54:43.332Z,5.00
2019-04-01T11:57:18.670Z,5.08
2019-04-01T12:00:05.628Z,4.80
2019-04-01T12:02:40.696Z,5.47
2019-04-01T12:05:40.210Z,4.12
2019-04-01T12:08:16.898Z,4.67
2019-04-01T12:10:49.034Z,5.13
2019-04-01T12:13:33.722Z,4.77
2019-04-01T12:16:04.238Z,5.33
2019-04-01T12:18:47.784Z,5.17
2019-04-01T12:21:22.787Z,5.10
2019-04-01T12:24:02.460Z,5.10
2019-04-01T12:26:35.574Z,4.67
2019-04-01T12:29:12.122Z,5.23
2019-04-01T12:32:05.219Z,5.10
2019-04-01T12:34:42.311Z,5.40
2019-04-01T12:37:12.168Z,4.73
2019-04-01T12:39:48.949Z,5.87
2019-04-01T12:45:59.472Z,5.80
2019-04-01T12:49:08.926Z,5.67
2019-04-01T12:52:27.920Z,5.50
2019-04-01T12:55:14.936Z,5.83
2019-04-01T12:57:48.536Z,5.80
2019-04-01T13:00:39.670Z,5.40
2019-04-01T13:03:10.741Z,5.47
2019-04-01T13:05:46.855Z,6.03
2019-04-01T13:08:45.145Z,6.17
2019-04-01T13:11:40.112Z,6.00
2019-04-01T13:14:17.361Z,5.93
2019-04-01T13:16:58.025Z,5.93
2019-04-01T13:19:35.084Z,6.00
2019-04-01T13:22:06.537Z,6.40
2019-04-01T13:24:39.332Z,6.50
2019-04-01T13:27:19.851Z,6.57
2019-04-01T13:29:57.243Z,5.70
2019-04-01T13:32:36.623Z,6.53
2019-04-01T13:35:08.023Z,6.30
2019-04-01T13:37:39.243Z,6.27
2019-04-01T13:40:12.738Z,6.50
2019-04-01T13:42:53.969Z,5.93
2019-04-01T13:45:28.561Z,6.53
2019-04-01T13:48:04.095Z,6.40
2019-04-01T13:50:36.117Z,6.60
2019-04-01T13:53:05.823Z,6.40
2019-04-01T13:55:40.984Z,6.47
2019-04-01T13:58:13.423Z,7.20
2019-04-01T14:00:51.178Z,6.97
2019-04-01T14:03:33.767Z,7.03
2019-04-01T14:06:05.406Z,7.77
2019-04-01T14:08:47.159Z,7.00
2019-04-01T14:11:17.857Z,6.80
2019-04-01T14:13:48.142Z,6.70
2019-04-01T14:16:29.541Z,6.43
2019-04-01T14:18:59.797Z,7.03
2019-04-01T14:21:37.284Z,7.13
2019-04-01T14:24:11.420Z,6.30
2019-04-01T14:26:46.484Z,6.77
2019-04-01T14:29:16.711Z,6.67
2019-04-01T14:31:46.253Z,7.50
2019-04-01T14:34:22.916Z,7.20
2019-04-01T14:36:59.112Z,6.60
2019-04-01T14:39:28.464Z,6.67
2019-04-01T14:41:58.992Z,7.03
2019-04-01T14:44:34.174Z,6.83
2019-04-01T14:47:04.111Z,6.83
2019-04-01T14:49:33.678Z,6.50
2019-04-01T14:52:03.303Z,7.20
2019-04-01T14:54:33.970Z,7.33
2019-04-01T14:57:03.975Z,7.33
2019-04-01T14:59:42.193Z,7.23
2019-04-01T15:02:32.581Z,7.33
2019-04-01T15:05:10.114Z,6.67
2019-04-01T15:07:39.838Z,7.27
2019-04-01T15:10:09.976Z,6.60
2019-04-01T15:12:39.897Z,6.70
2019-04-01T15:15:10.651Z,7.20
2019-04-01T15:17:40.125Z,7.20
2019-04-01T15:20:10.885Z,7.70
2019-04-01T15:22:40.293Z,7.47
2019-04-01T15:25:09.926Z,7.53
2019-04-01T15:27:39.365Z,7.57
2019-04-01T15:30:09.519Z,7.17
2019-04-01T15:32:40.957Z,7.20
2019-04-01T15:35:16.698Z,7.30
2019-04-01T15:37:48.891Z,6.67
2019-04-01T15:40:21.238Z,7.63
2019-04-01T15:42:52.125Z,7.27
2019-04-01T15:45:31.118Z,7.17
2019-04-01T15:47:59.547Z,7.00
2019-04-01T15:50:29.250Z,6.23
2019-04-01T15:53:04.521Z,7.37
2019-04-01T15:55:38.046Z,6.63
2019-04-01T15:58:13.531Z,7.27
2019-04-01T16:00:43.037Z,6.73
2019-04-01T16:03:16.885Z,7.47
2019-04-01T16:05:55.169Z,6.77
2019-04-01T16:08:29.606Z,6.80
2019-04-01T16:11:04.832Z,6.87
2019-04-01T16:13:35.432Z,7.57
2019-04-01T16:16:14.508Z,6.30
2019-04-01T16:18:46.008Z,7.20
2019-04-01T16:21:20.117Z,7.63
2019-04-01T16:24:03.782Z,7.55
2019-04-01T16:26:56.624Z,7.10
2019-04-01T16:29:38.768Z,7.03
2019-04-01T16:32:43.776Z,7.50
2019-04-01T16:35:16.440Z,7.03
2019-04-01T16:38:32.163Z,7.30
2019-04-01T16:41:02.090Z,7.60
2019-04-01T16:43:33.924Z,7.43
2019-04-01T16:46:16.202Z,7.80
2019-04-01T16:52:05.750Z,7.50
2019-04-01T16:54:37.553Z,8.37
2019-04-01T16:57:45.292Z,8.13
2019-04-01T17:00:23.708Z,10.03
2019-04-01T17:02:54.539Z,10.47
2019-04-01T17:05:33.886Z,10.43
2019-04-01T17:08:10.292Z,7.63
2019-04-01T17:10:40.394Z,8.23
2019-04-01T17:13:15.628Z,7.60
2019-04-01T17:15:56.472Z,7.40
2019-04-01T17:18:26.138Z,9.47
2019-04-01T17:20:55.516Z,8.80
2019-04-01T17:23:56.587Z,8.87
2019-04-01T17:26:26.239Z,8.57
2019-04-01T17:29:01.701Z,7.53
2019-04-01T17:31:40.689Z,7.57
2019-04-01T17:34:12.315Z,8.00
2019-04-01T17:36:41.692Z,8.00
2019-04-01T17:39:12.371Z,7.57
2019-04-01T17:41:52.786Z,6.80
2019-04-01T17:44:22.847Z,7.97
2019-04-01T17:46:52.408Z,7.90
2019-04-01T17:49:24.388Z,7.90
2019-04-01T17:51:56.333Z,7.83
2019-04-01T17:54:31.620Z,7.80
2019-04-01T17:57:08.536Z,8.17
2019-04-01T17:59:40.160Z,8.50
2019-04-01T18:02:25.710Z,8.47
2019-04-01T18:05:07.954Z,9.03
2019-04-01T18:07:42.441Z,9.00
2019-04-01T18:10:12.072Z,8.00
2019-04-01T18:12:46.907Z,8.93
2019-04-01T18:15:20.668Z,8.10
2019-04-01T18:17:56.487Z,8.47
2019-04-01T18:20:27.992Z,7.53
2019-04-01T18:23:00.367Z,8.10
2019-04-01T18:25:30.845Z,7.63
2019-04-01T18:28:04.283Z,7.60
2019-04-01T18:30:48.052Z,8.53
2019-04-01T18:33:24.327Z,8.40
2019-04-01T18:35:58.352Z,9.27
2019-04-01T18:38:32.376Z,8.43
2019-04-01T18:41:02.117Z,8.27
2019-04-01T18:43:34.565Z,8.57
2019-04-01T18:46:04.035Z,8.33
2019-04-01T18:48:39.310Z,8.20
2019-04-01T18:51:14.970Z,9.50
2019-04-01T18:53:44.454Z,8.87
2019-04-01T18:56:16.794Z,9.43
2019-04-01T18:58:52.113Z,10.27
2019-04-01T19:01:32.689Z,9.33
2019-04-01T19:04:14.501Z,9.13
2019-04-01T19:06:44.005Z,9.10
2019-04-01T19:09:17.207Z,9.10
2019-04-01T19:11:46.684Z,8.87
2019-04-01T19:14:16.985Z,9.07
2019-04-01T19:16:54.678Z,9.53
2019-04-01T19:19:24.947Z,10.73
2019-04-01T19:22:17.327Z,10.40
2019-04-01T19:24:49.115Z,8.00
2019-04-01T19:27:18.470Z,8.43
2019-04-01T19:29:50.200Z,8.57
2019-04-01T19:32:23.349Z,7.85
2019-04-01T19:35:23.243Z,7.90
2019-04-01T19:37:56.136Z,8.40
2019-04-01T19:40:50.194Z,8.43
2019-04-01T19:43:23.715Z,8.37
2019-04-01T19:45:55.832Z,8.50
2019-04-01T19:48:39.962Z,8.23
2019-04-01T19:51:12.540Z,8.23
2019-04-01T19:53:49.934Z,8.13
2019-04-01T19:56:33.130Z,8.75
2019-04-01T19:59:07.782Z,8.00
2019-04-01T20:01:45.531Z,7.70
2019-04-01T20:04:17.432Z,7.67
2019-04-01T20:06:59.653Z,7.67
2019-04-01T20:09:37.718Z,7.93
2019-04-01T20:12:17.160Z,7.60
2019-04-01T20:14:50.612Z,8.33
2019-04-01T20:17:21.494Z,7.70
2019-04-01T20:19:50.774Z,8.93
2019-04-01T20:22:20.345Z,8.30
2019-04-01T20:24:58.201Z,8.20
2019-04-01T20:27:44.360Z,8.20
2019-04-01T20:30:25.503Z,8.03
2019-04-01T20:32:56.052Z,8.57
2019-04-01T20:35:28.323Z,8.63
2019-04-01T20:38:07.374Z,8.53
2019-04-01T20:40:39.099Z,9.07
2019-04-01T20:43:10.419Z,8.60
2019-04-01T20:45:40.790Z,8.97
2019-04-01T20:48:10.297Z,8.83
2019-04-01T20:50:39.800Z,8.83
2019-04-01T20:53:19.464Z,9.20
2019-04-01T20:55:50.678Z,9.33
2019-04-01T20:58:24.253Z,8.93
2019-04-01T21:01:04.972Z,9.50
2019-04-01T21:03:36.600Z,10.10
2019-04-01T21:06:05.881Z,9.70
2019-04-01T21:08:46.333Z,9.90
2019-04-01T21:11:22.913Z,10.27
2019-04-01T21:13:54.504Z,10.43
2019-04-01T21:16:29.663Z,9.97
2019-04-01T21:19:05.006Z,10.67
2019-04-01T21:21:35.284Z,10.47
2019-04-01T21:24:05.335Z,9.67
2019-04-01T21:26:44.710Z,10.73
2019-04-01T21:29:19.115Z,10.40
2019-04-01T21:31:51.710Z,9.63
2019-04-01T21:34:33.900Z,9.97
2019-04-01T21:37:06.495Z,9.73
2019-04-01T21:39:37.883Z,9.53
2019-04-01T21:42:07.445Z,9.43
2019-04-01T21:44:37.012Z,9.87
2019-04-01T21:47:15.432Z,10.17
2019-04-01T21:49:44.915Z,9.93
2019-04-01T21:52:15.246Z,9.33
2019-04-01T21:54:56.965Z,9.60
2019-04-01T21:57:32.250Z,9.67
2019-04-01T22:00:08.136Z,10.53
2019-04-01T22:02:37.397Z,10.83
2019-04-01T22:05:13.559Z,10.50
2019-04-01T22:07:54.085Z,10.40
2019-04-01T22:10:34.162Z,10.27
2019-04-01T22:13:11.994Z,10.37
2019-04-01T22:15:43.395Z,9.60
2019-04-01T22:18:14.309Z,9.83
2019-04-01T22:20:49.941Z,9.87
2019-04-01T22:23:27.524Z,9.47
2019-04-01T22:26:09.273Z,9.17
2019-04-01T22:29:16.466Z,9.80
2019-04-01T22:31:46.070Z,9.80
2019-04-01T22:34:21.270Z,9.47
2019-04-01T22:36:53.601Z,9.90
2019-04-01T22:39:32.900Z,9.70
2019-04-01T22:42:05.353Z,9.73
2019-04-01T22:44:34.919Z,9.87
2019-04-01T22:47:04.192Z,9.30
2019-04-01T22:49:33.385Z,10.13
2019-04-01T22:52:03.818Z,9.80
2019-04-01T22:54:39.633Z,9.90
2019-04-01T22:57:11.517Z,9.90
2019-04-01T22:59:46.966Z,9.50
2019-04-01T23:02:22.575Z,9.45
2019-04-01T23:05:09.034Z,9.97
2019-04-01T23:07:45.807Z,9.70
2019-04-01T23:10:15.549Z,9.38
2019-04-01T23:12:44.965Z,9.90
2019-04-01T23:15:27.963Z,10.00
2019-04-01T23:18:04.412Z,9.30
2019-04-01T23:20:41.742Z,9.67
2019-04-01T23:23:19.007Z,8.78
2019-04-01T23:25:59.536Z,9.10
2019-04-01T23:28:36.886Z,9.10
2019-04-01T23:31:13.766Z,9.27
2019-04-01T23:33:45.011Z,9.60
2019-04-01T23:36:22.552Z,9.37
2019-04-01T23:38:59.004Z,9.00
2019-04-01T23:41:30.063Z,9.20
2019-04-01T23:43:59.658Z,9.97
2019-04-01T23:46:34.922Z,9.63
2019-04-01T23:49:18.066Z,9.00
2019-04-01T23:51:53.554Z,9.93
2019-04-01T23:54:36.677Z,9.18
2019-04-01T23:57:10.238Z,9.23
2019-04-01T23:59:41.750Z,9.10
